Time;durP1;ratioP1;P1;durP2;ratioP2;P2;SDS_P1;SDS_P2;PMS_P1;PMS_P2;Temp;Humidity;BMP_temperature;BMP_pressure;BME280_temperature;BME280_humidity;BME280_pressure;Samples;Min_cycle;Max_cycle;Signal;HPM_P1;HPM_P2
2023/04/15 00:01:32;;;;;;;13.25;5.68;;;;;;;8.26;65.17;99734.09;4129249;28;20046;-68
2023/04/15 00:03:35;;;;;;;12.88;5.65;;;;;;;8.23;65.26;99728.03;4128300;28;20069;-68
2023/04/15 00:05:40;;;;;;;9.18;4.85;;;;;;;8.17;65.06;99727.09;4129332;28;20038;-67
2023/04/15 00:07:43;;;;;;;11.00;5.72;;;;;;;8.12;65.10;99725.28;4126317;28;20416;-68
2023/04/15 00:09:46;;;;;;;13.43;5.53;;;;;;;8.10;65.68;99722.69;4112393;28;20046;-67
2023/04/15 00:11:50;;;;;;;11.35;5.15;;;;;;;8.08;65.66;99726.13;4129946;28;20038;-68
2023/04/15 00:13:53;;;;;;;13.50;6.15;;;;;;;8.03;66.16;99726.03;4129363;28;20043;-68
2023/04/15 00:15:56;;;;;;;15.77;5.65;;;;;;;8.00;66.13;99721.72;4129683;28;20050;-67
2023/04/15 00:17:58;;;;;;;10.45;5.43;;;;;;;7.99;66.16;99725.16;4129740;28;20046;-67
2023/04/15 00:20:05;;;;;;;16.40;5.70;;;;;;;7.99;66.54;99729.47;4129583;28;20070;-67
2023/04/15 00:22:09;;;;;;;11.80;5.53;;;;;;;7.98;66.59;99728.56;4129711;28;20129;-68
2023/04/15 00:24:12;;;;;;;10.65;5.45;;;;;;;7.96;66.89;99721.66;4126833;28;20034;-68
2023/04/15 00:26:15;;;;;;;15.30;6.10;;;;;;;7.95;67.16;99723.38;4112469;28;20050;-67
2023/04/15 00:28:19;;;;;;;10.25;5.82;;;;;;;7.92;66.81;99725.91;4129595;28;20077;-68
2023/04/15 00:30:22;;;;;;;13.70;6.20;;;;;;;7.88;66.95;99718.09;4116428;28;20038;-67
2023/04/15 00:32:25;;;;;;;15.55;5.70;;;;;;;7.80;67.18;99720.59;4126824;28;20046;-67
2023/04/15 00:34:28;;;;;;;11.75;5.65;;;;;;;7.71;67.50;99723.03;4112783;28;20042;-67
2023/04/15 00:36:32;;;;;;;12.85;5.80;;;;;;;7.67;67.53;99715.22;4119779;28;20039;-67
2023/04/15 00:38:38;;;;;;;10.55;5.20;;;;;;;7.64;67.60;99717.78;4111172;28;20106;-67
2023/04/15 00:40:41;;;;;;;12.63;5.78;;;;;;;7.63;67.97;99713.44;4130624;28;20047;-67
2023/04/15 00:42:44;;;;;;;12.50;5.43;;;;;;;7.62;67.55;99711.72;4128637;28;20072;-67
2023/04/15 00:44:48;;;;;;;13.40;5.85;;;;;;;7.63;67.61;99717.75;4129807;28;20049;-67
2023/04/15 00:46:52;;;;;;;12.82;6.22;;;;;;;7.66;67.64;99705.72;4111429;28;20078;-67
2023/04/15 00:48:55;;;;;;;14.77;6.10;;;;;;;7.69;67.29;99715.25;4109354;28;20078;-67
2023/04/15 00:50:58;;;;;;;15.73;6.57;;;;;;;7.70;67.69;99711.81;4105280;28;20035;-67
2023/04/15 00:53:01;;;;;;;18.70;6.93;;;;;;;7.69;67.78;99713.56;4122842;28;20030;-67
2023/04/15 00:55:07;;;;;;;15.32;6.25;;;;;;;7.66;67.87;99716.06;4113087;28;20051;-67
2023/04/15 00:57:10;;;;;;;16.05;5.78;;;;;;;7.66;67.66;99712.63;4113046;28;20047;-66
2023/04/15 00:59:14;;;;;;;14.95;6.05;;;;;;;7.66;67.91;99710.91;4129361;28;20050;-67
2023/04/15 01:01:21;;;;;;;14.57;6.05;;;;;;;7.60;67.98;99713.41;4112383;28;20050;-67
2023/04/15 01:03:24;;;;;;;16.20;7.20;;;;;;;7.58;67.78;99715.13;4111688;28;20043;-67
2023/04/15 01:05:29;;;;;;;17.10;6.28;;;;;;;7.54;67.72;99710.75;4127039;28;20104;-68
2023/04/15 01:07:32;;;;;;;10.20;5.63;;;;;;;7.56;68.20;99719.38;4128435;28;20556;-68
2023/04/15 01:09:35;;;;;;;11.25;6.43;;;;;;;7.60;67.86;99715.13;4113264;28;20129;-68
2023/04/15 01:11:39;;;;;;;12.18;6.13;;;;;;;7.54;67.97;99709.88;4110607;28;20101;-68
2023/04/15 01:13:43;;;;;;;12.88;6.07;;;;;;;7.54;67.60;99708.16;4103091;28;20043;-68
2023/04/15 01:15:46;;;;;;;11.75;6.47;;;;;;;7.52;67.36;99702.09;4110268;28;20039;-68
2023/04/15 01:17:49;;;;;;;15.77;6.65;;;;;;;7.53;67.56;99701.22;4109881;28;20114;-68
2023/04/15 01:19:52;;;;;;;10.68;5.82;;;;;;;7.54;67.35;99705.56;4109446;28;20047;-68
2023/04/15 01:21:56;;;;;;;14.80;5.97;;;;;;;7.59;67.17;99706.47;4112061;28;20042;-67
2023/04/15 01:23:59;;;;;;;13.00;6.05;;;;;;;7.59;66.99;99708.22;4106439;28;21926;-68
2023/04/15 01:26:03;;;;;;;13.38;6.30;;;;;;;7.56;67.02;99706.44;4122996;28;20096;-68
2023/04/15 01:28:08;;;;;;;12.70;6.60;;;;;;;7.54;67.10;99705.56;4111181;28;20417;-68
2023/04/15 01:30:11;;;;;;;;;;;;;;;7.44;67.86;99701.09;4108286;28;20476;-68
2023/04/15 01:32:14;;;;;;;10.95;5.90;;;;;;;7.40;67.62;99702.75;4128079;28;19922;-68
2023/04/15 01:34:18;;;;;;;13.05;6.18;;;;;;;7.37;67.46;99701.88;4117000;28;20055;-68
2023/04/15 01:36:21;;;;;;;18.70;6.88;;;;;;;7.46;66.55;99713.22;4093773;29;20038;-67
2023/04/15 01:38:30;;;;;;;14.25;6.85;;;;;;;7.41;66.35;99720.03;4110202;28;20066;-67
2023/04/15 01:40:35;;;;;;;12.30;6.78;;;;;;;7.32;66.83;99713.00;4111904;28;20540;-68
2023/04/15 01:42:39;;;;;;;14.70;6.85;;;;;;;7.24;66.83;99717.19;4128267;28;20038;-67
2023/04/15 01:44:43;;;;;;;16.15;7.72;;;;;;;7.24;67.00;99721.47;4110986;28;20133;-67
2023/04/15 01:46:47;;;;;;;11.30;6.43;;;;;;;7.23;67.48;99724.91;4125307;28;20105;-67
2023/04/15 01:48:50;;;;;;;12.48;6.18;;;;;;;7.17;67.96;99723.13;4089800;28;20095;-67
2023/04/15 01:50:57;;;;;;;13.45;6.13;;;;;;;7.15;67.88;99725.69;4114712;28;20516;-68
2023/04/15 01:53:00;;;;;;;19.00;7.07;;;;;;;7.13;68.38;99729.94;4113719;28;20037;-67
2023/04/15 01:55:03;;;;;;;15.00;6.68;;;;;;;7.07;68.42;99726.41;4129951;28;20045;-67
2023/04/15 01:57:06;;;;;;;12.82;6.78;;;;;;;7.05;68.48;99722.91;4113208;28;20073;-67
2023/04/15 01:59:11;;;;;;;14.50;6.00;;;;;;;7.05;68.47;99721.19;4121408;28;20111;-67
2023/04/15 02:01:15;;;;;;;14.52;7.28;;;;;;;7.08;69.02;99720.38;4097306;29;20516;-67
2023/04/15 02:03:18;;;;;;;9.68;5.90;;;;;;;7.09;68.48;99720.38;4113704;28;20536;-67
2023/04/15 02:05:21;;;;;;;12.05;6.60;;;;;;;7.08;69.12;99720.38;4130401;28;20451;-68
2023/04/15 02:07:24;;;;;;;16.63;6.70;;;;;;;7.17;68.49;99717.94;4112871;28;20045;-67
2023/04/15 02:09:27;;;;;;;14.05;7.13;;;;;;;7.08;69.05;99723.84;4114588;28;20066;-67
2023/04/15 02:11:30;;;;;;;13.93;6.03;;;;;;;7.02;69.05;99718.53;4112964;28;20503;-67
2023/04/15 02:13:33;;;;;;;11.52;6.22;;;;;;;7.04;69.02;99726.31;4127925;28;20037;-67
2023/04/15 02:15:37;;;;;;;10.40;5.65;;;;;;;6.97;69.49;99722.78;4129425;28;20034;-67
2023/04/15 02:17:44;;;;;;;9.93;5.68;;;;;;;6.91;69.22;99725.28;4114207;28;20073;-67
2023/04/15 02:19:49;;;;;;;12.95;6.20;;;;;;;6.83;69.73;99719.94;4115001;28;20043;-67
2023/04/15 02:21:51;;;;;;;12.25;7.25;;;;;;;6.84;69.29;99721.69;4113848;28;20034;-67
2023/04/15 02:23:54;;;;;;;16.67;6.22;;;;;;;6.84;69.33;99716.53;4129081;28;20097;-67
2023/04/15 02:25:58;;;;;;;13.23;6.10;;;;;;;6.87;69.79;99719.16;4114242;28;20452;-67
2023/04/15 02:28:01;;;;;;;12.75;6.63;;;;;;;6.85;69.17;99722.56;4129937;28;20027;-67
2023/04/15 02:30:06;;;;;;;11.02;6.35;;;;;;;6.87;69.13;99724.31;4100252;28;20042;-67
2023/04/15 02:32:11;;;;;;;13.48;7.15;;;;;;;6.91;69.33;99730.44;4113779;28;20516;-67
2023/04/15 02:34:14;;;;;;;12.40;6.32;;;;;;;6.89;68.57;99720.09;4130485;28;20042;-67
2023/04/15 02:36:20;;;;;;;14.48;6.22;;;;;;;6.84;68.89;99724.28;4113355;28;20378;-67
2023/04/15 02:38:23;;;;;;;14.07;6.78;;;;;;;6.82;68.90;99723.41;4130295;28;20046;-67
2023/04/15 02:40:26;;;;;;;12.35;6.75;;;;;;;6.88;69.13;99720.03;4128846;28;20046;-67
2023/04/15 02:42:30;;;;;;;14.07;7.38;;;;;;;6.88;68.49;99723.50;4113202;28;20047;-67
2023/04/15 02:44:35;;;;;;;12.70;7.32;;;;;;;6.86;68.62;99719.13;4110901;28;20102;-67
2023/04/15 02:46:40;;;;;;;15.45;5.82;;;;;;;6.84;68.48;99726.88;4111707;28;20159;-68
2023/04/15 02:48:44;;;;;;;18.60;7.40;;;;;;;6.81;68.34;99722.50;4118944;28;20030;-67
2023/04/15 02:50:47;;;;;;;14.45;6.07;;;;;;;6.78;68.98;99724.19;4123869;28;20037;-67
2023/04/15 02:52:51;;;;;;;15.40;6.60;;;;;;;6.70;69.14;99728.31;4121866;28;20085;-67
2023/04/15 02:54:59;;;;;;;12.55;6.85;;;;;;;6.69;68.94;99716.25;4114570;28;20536;-67
2023/04/15 02:57:04;;;;;;;14.30;7.05;;;;;;;6.61;69.29;99719.59;4114946;28;20051;-67
2023/04/15 02:59:08;;;;;;;14.82;6.53;;;;;;;6.67;69.08;99728.28;4113484;28;20046;-67
2023/04/15 03:01:10;;;;;;;17.63;7.80;;;;;;;6.69;69.09;99724.00;4111055;28;20053;-67
2023/04/15 03:03:14;;;;;;;12.90;7.00;;;;;;;6.70;69.06;99726.63;4112732;28;20062;-67
2023/04/15 03:05:18;;;;;;;9.75;6.05;;;;;;;6.70;68.96;99725.75;4111682;28;20051;-67
2023/04/15 03:07:24;;;;;;;9.45;6.05;;;;;;;6.72;68.90;99727.53;4097505;28;20055;-67
2023/04/15 03:09:28;;;;;;;14.32;6.70;;;;;;;6.73;68.76;99720.63;4127483;28;20031;-67
2023/04/15 03:11:32;;;;;;;11.55;5.55;;;;;;;6.70;68.82;99726.63;4127907;28;20046;-67
2023/04/15 03:13:40;;;;;;;12.07;6.18;;;;;;;6.69;68.86;99724.00;4110527;28;20089;-67
2023/04/15 03:15:50;;;;;;;11.32;5.80;;;;;;;6.74;68.64;99736.16;4126729;28;20050;-67
2023/04/15 03:17:53;;;;;;;11.27;6.28;;;;;;;6.79;68.53;99731.06;4122065;28;20488;-67
2023/04/15 03:19:56;;;;;;;13.18;6.28;;;;;;;6.78;68.73;99722.47;4113899;28;20041;-67
2023/04/15 03:22:00;;;;;;;12.43;6.18;;;;;;;6.67;69.02;99731.72;4131657;28;20034;-67
2023/04/15 03:24:03;;;;;;;12.40;7.60;;;;;;;6.60;69.29;99738.50;4112702;28;20065;-67
2023/04/15 03:26:06;;;;;;;11.27;6.63;;;;;;;6.58;69.20;99735.00;4113812;28;20122;-67
2023/04/15 03:28:09;;;;;;;10.32;5.93;;;;;;;6.60;69.21;99733.34;4112384;28;20458;-67
2023/04/15 03:30:13;;;;;;;10.68;5.95;;;;;;;6.62;68.93;99726.47;4111682;28;20038;-68
2023/04/15 03:32:16;;;;;;;9.68;5.88;;;;;;;6.64;68.71;99723.91;4128731;28;20038;-67
2023/04/15 03:34:19;;;;;;;14.43;7.32;;;;;;;6.62;68.93;99725.63;4111622;28;20134;-68
2023/04/15 03:36:22;;;;;;;11.65;6.70;;;;;;;6.61;69.19;99729.94;4128896;28;20440;-68
2023/04/15 03:38:26;;;;;;;14.52;6.95;;;;;;;6.62;68.72;99721.31;4127200;28;20471;-67
2023/04/15 03:40:29;;;;;;;14.70;7.22;;;;;;;6.61;68.93;99727.34;4127188;28;20046;-67
2023/04/15 03:42:32;;;;;;;11.88;6.45;;;;;;;6.60;68.91;99723.00;4130235;28;20100;-67
2023/04/15 03:44:35;;;;;;;11.80;6.00;;;;;;;6.59;68.77;99728.16;4128655;28;20046;-67
2023/04/15 03:46:37;;;;;;;11.48;5.88;;;;;;;6.56;69.01;99725.50;4126270;28;20121;-67
2023/04/15 03:48:40;;;;;;;12.13;6.22;;;;;;;6.56;69.06;99720.34;4129421;28;20042;-67
2023/04/15 03:50:43;;;;;;;14.48;6.45;;;;;;;6.57;69.13;99722.94;4110236;28;20556;-67
2023/04/15 03:52:46;;;;;;;12.80;6.63;;;;;;;6.58;68.63;99726.41;4128915;28;20535;-67
2023/04/15 03:54:53;;;;;;;11.63;6.20;;;;;;;6.50;68.52;99725.38;4124134;28;20545;-67
2023/04/15 03:56:56;;;;;;;16.20;6.72;;;;;;;6.45;68.63;99722.72;4129939;28;20034;-67
2023/04/15 03:58:59;;;;;;;11.95;5.93;;;;;;;6.43;68.90;99717.53;4130187;28;20096;-67
2023/04/15 04:01:02;;;;;;;11.70;6.45;;;;;;;6.43;68.71;99721.81;4128779;28;20129;-67
2023/04/15 04:03:05;;;;;;;12.95;6.20;;;;;;;6.43;68.78;99721.81;4111578;28;20416;-67
2023/04/15 04:05:09;;;;;;;13.77;7.07;;;;;;;6.39;68.71;99720.03;4129054;28;20125;-67
2023/04/15 04:07:15;;;;;;;10.70;5.43;;;;;;;6.38;68.97;99721.75;4129791;28;20035;-67
2023/04/15 04:09:18;;;;;;;10.10;5.93;;;;;;;6.33;68.68;99718.19;4110204;28;20051;-67
2023/04/15 04:11:22;;;;;;;12.77;6.93;;;;;;;6.31;68.91;99722.47;4129256;28;20068;-67
2023/04/15 04:13:25;;;;;;;13.85;7.32;;;;;;;6.31;69.17;99722.47;4128313;28;20409;-67
2023/04/15 04:15:28;;;;;;;13.00;6.50;;;;;;;6.31;69.06;99726.72;4113212;28;20133;-67
2023/04/15 04:17:31;;;;;;;11.40;5.80;;;;;;;6.27;69.15;99726.69;4130397;28;20038;-67
2023/04/15 04:19:34;;;;;;;11.32;6.35;;;;;;;6.24;69.15;99728.34;4128004;28;20042;-67
2023/04/15 04:21:38;;;;;;;14.35;6.78;;;;;;;6.24;69.72;99733.50;4130030;28;20535;-66
2023/04/15 04:23:41;;;;;;;12.27;7.00;;;;;;;6.25;69.47;99725.78;4128412;28;20098;-66
2023/04/15 04:25:44;;;;;;;11.98;7.30;;;;;;;6.25;69.30;99730.06;4125255;28;20085;-66
2023/04/15 04:27:48;;;;;;;12.63;6.50;;;;;;;6.26;69.50;99736.97;4115926;28;20038;-66
2023/04/15 04:29:50;;;;;;;13.10;6.70;;;;;;;6.23;69.62;99736.91;4113187;28;20386;-66
2023/04/15 04:31:53;;;;;;;13.13;6.20;;;;;;;6.23;69.43;99740.34;4123197;28;20077;-66
2023/04/15 04:33:56;;;;;;;15.52;6.80;;;;;;;6.22;69.96;99741.22;4106310;28;20063;-66
2023/04/15 04:35:59;;;;;;;12.93;6.90;;;;;;;6.16;70.06;99741.06;4112093;28;20046;-66
2023/04/15 04:38:02;;;;;;;10.25;6.00;;;;;;;6.13;70.15;99743.59;4111486;28;20086;-66
2023/04/15 04:40:07;;;;;;;10.20;5.95;;;;;;;6.13;69.99;99743.59;4111943;28;20079;-66
2023/04/15 04:42:09;;;;;;;10.73;6.63;;;;;;;6.08;70.06;99740.06;4127559;28;20516;-66
2023/04/15 04:44:14;;;;;;;10.93;5.93;;;;;;;6.03;70.07;99745.13;4128507;28;20528;-66
2023/04/15 04:46:16;;;;;;;10.07;6.28;;;;;;;5.97;70.62;99749.25;4128816;28;20042;-66
2023/04/15 04:48:19;;;;;;;12.70;6.43;;;;;;;6.01;70.19;99740.78;4133697;23;20500;-67
2023/04/15 04:50:22;;;;;;;9.18;5.47;;;;;;;5.99;70.40;99739.88;4113759;28;20046;-68
2023/04/15 04:52:25;;;;;;;11.45;5.88;;;;;;;5.98;70.83;99744.16;4111941;28;20064;-68
2023/04/15 04:54:29;;;;;;;12.10;6.00;;;;;;;6.02;70.40;99750.25;4110764;28;20040;-68
2023/04/15 04:56:33;;;;;;;12.45;6.07;;;;;;;6.05;70.54;99737.41;4113008;28;20039;-68
2023/04/15 04:58:37;;;;;;;12.73;6.72;;;;;;;6.08;70.00;99742.63;4113162;28;20042;-68
2023/04/15 05:00:41;;;;;;;12.05;6.43;;;;;;;6.10;70.43;99740.94;4112434;28;20452;-68
2023/04/15 05:02:44;;;;;;;17.20;6.85;;;;;;;6.09;70.11;99752.13;4114038;28;20035;-68
2023/04/15 05:04:48;;;;;;;11.88;4.97;;;;;;;6.09;70.21;99757.28;4115939;28;20089;-68
2023/04/15 05:06:51;;;;;;;12.07;6.57;;;;;;;6.11;70.33;99747.88;4112742;28;20074;-67
2023/04/15 05:08:55;;;;;;;10.30;5.18;;;;;;;6.17;70.41;99760.03;4114907;28;20046;-67
2023/04/15 05:10:58;;;;;;;12.05;5.00;;;;;;;6.18;69.83;99749.72;4112271;28;20038;-67
2023/04/15 05:13:01;;;;;;;10.32;5.72;;;;;;;6.19;70.11;99756.66;4126078;28;20539;-68
2023/04/15 05:15:05;;;;;;;13.45;5.95;;;;;;;6.23;69.49;99752.41;4110831;28;20420;-68
2023/04/15 05:17:10;;;;;;;10.63;5.35;;;;;;;6.18;69.48;99756.63;4112030;28;20046;-67
2023/04/15 05:19:12;;;;;;;9.05;4.88;;;;;;;6.14;69.87;99760.81;4111415;28;20042;-68
2023/04/15 05:21:15;;;;;;;15.00;6.28;;;;;;;6.18;69.56;99767.78;4109660;28;20047;-68
2023/04/15 05:23:19;;;;;;;10.70;5.97;;;;;;;6.23;69.15;99757.56;4128663;28;20081;-68
2023/04/15 05:25:22;;;;;;;11.18;5.70;;;;;;;6.26;69.07;99763.69;4117228;28;20042;-68
2023/04/15 05:27:25;;;;;;;11.13;5.93;;;;;;;6.28;68.89;99769.72;4130327;28;20500;-67
2023/04/15 05:29:28;;;;;;;13.38;6.10;;;;;;;6.31;68.65;99775.78;4117263;28;20106;-67
2023/04/15 05:31:31;;;;;;;9.73;5.80;;;;;;;6.34;69.34;99781.00;4118735;28;20407;-67
2023/04/15 05:33:36;;;;;;;11.27;5.75;;;;;;;6.39;69.21;99774.22;4115962;28;20049;-67
2023/04/15 05:35:39;;;;;;;13.77;6.30;;;;;;;6.40;69.04;99776.84;4118333;28;20043;-67
2023/04/15 05:37:42;;;;;;;10.25;5.25;;;;;;;6.46;68.95;99770.94;4115891;28;20097;-67
2023/04/15 05:39:45;;;;;;;13.45;6.07;;;;;;;6.52;68.87;99783.97;4117352;28;20451;-67
2023/04/15 05:41:48;;;;;;;9.60;5.05;;;;;;;6.57;68.90;99779.78;4118004;28;20121;-67
2023/04/15 05:43:50;;;;;;;10.20;6.00;;;;;;;6.63;68.89;99779.88;4114830;28;20045;-67
2023/04/15 05:45:53;;;;;;;11.40;5.15;;;;;;;6.62;69.16;99778.13;4121088;28;20074;-67
2023/04/15 05:47:56;;;;;;;10.88;5.60;;;;;;;6.68;69.38;99777.38;4119995;28;20067;-67
2023/04/15 05:50:00;;;;;;;11.50;5.72;;;;;;;6.71;68.83;99776.56;4118901;28;20034;-67
2023/04/15 05:52:03;;;;;;;14.15;6.00;;;;;;;6.79;68.36;99777.56;4116149;28;20055;-67
2023/04/15 05:54:06;;;;;;;14.25;6.75;;;;;;;6.92;68.15;99782.13;4114371;28;20548;-67
2023/04/15 05:56:09;;;;;;;11.50;6.53;;;;;;;6.99;67.83;99788.28;4119374;28;20049;-67
2023/04/15 05:58:12;;;;;;;10.93;6.13;;;;;;;7.06;67.80;99778.94;4118699;28;20501;-67
2023/04/15 06:00:15;;;;;;;13.80;6.28;;;;;;;7.22;67.17;99780.06;4119083;28;20061;-68
2023/04/15 06:02:18;;;;;;;13.38;6.53;;;;;;;7.28;66.73;99791.34;4116960;28;20053;-67
2023/04/15 06:04:21;;;;;;;12.10;7.03;;;;;;;7.37;66.46;99782.03;4114298;28;20448;-67
2023/04/15 06:06:26;;;;;;;13.77;6.28;;;;;;;7.38;66.41;99784.63;4116128;28;20047;-68
2023/04/15 06:08:29;;;;;;;12.07;6.82;;;;;;;7.43;66.35;99771.75;4118432;28;20046;-68
2023/04/15 06:10:35;;;;;;;14.15;7.47;;;;;;;7.53;65.92;99776.22;4130178;28;20050;-67
2023/04/15 06:12:38;;;;;;;11.80;7.15;;;;;;;7.55;65.60;99774.56;4114261;28;20035;-68
2023/04/15 06:14:41;;;;;;;12.35;7.20;;;;;;;7.63;64.85;99780.69;4115393;28;20042;-68
2023/04/15 06:16:44;;;;;;;16.15;7.43;;;;;;;7.66;65.30;99777.28;4116076;28;20061;-68
2023/04/15 06:18:47;;;;;;;12.88;6.93;;;;;;;7.64;65.10;99781.59;4114954;28;20752;-67
2023/04/15 06:20:50;;;;;;;13.50;7.75;;;;;;;7.76;65.13;99778.31;4115283;28;20524;-67
2023/04/15 06:22:55;;;;;;;20.20;8.05;;;;;;;7.82;64.51;99780.97;4113020;28;20047;-67
2023/04/15 06:24:58;;;;;;;20.60;8.63;;;;;;;7.85;64.37;99786.19;4116669;28;20410;-67
2023/04/15 06:27:01;;;;;;;14.27;7.32;;;;;;;7.86;63.95;99788.81;4106605;28;20040;-67
2023/04/15 06:29:04;;;;;;;10.90;6.55;;;;;;;7.77;65.15;99783.50;4114809;28;20046;-67
2023/04/15 06:31:06;;;;;;;13.77;7.15;;;;;;;7.88;64.53;99782.78;4109766;28;20045;-68
2023/04/15 06:33:10;;;;;;;15.52;7.75;;;;;;;8.02;63.99;99779.53;4122438;28;20578;-68
2023/04/15 06:35:12;;;;;;;12.95;8.07;;;;;;;8.08;63.85;99775.31;4129760;28;20039;-68
2023/04/15 06:37:18;;;;;;;15.10;8.18;;;;;;;8.15;64.00;99782.31;4114237;28;20083;-68
2023/04/15 06:39:22;;;;;;;14.20;7.80;;;;;;;8.19;63.66;99784.06;4113379;28;20039;-68
2023/04/15 06:41:28;;;;;;;13.45;7.38;;;;;;;8.26;63.99;99791.06;4114361;28;20532;-68
2023/04/15 06:43:31;;;;;;;12.10;7.07;;;;;;;8.31;63.83;99788.53;4113540;28;20060;-68
2023/04/15 06:45:34;;;;;;;11.73;6.90;;;;;;;8.38;63.80;99786.03;4111473;28;20031;-68
2023/04/15 06:47:37;;;;;;;9.30;6.20;;;;;;;8.41;64.02;99784.34;4113734;28;20070;-68
2023/04/15 06:49:41;;;;;;;16.17;7.70;;;;;;;8.46;63.96;99783.56;4111394;28;20445;-68
2023/04/15 06:51:44;;;;;;;12.68;7.45;;;;;;;8.52;63.46;99780.19;4116265;28;20039;-68
2023/04/15 06:53:47;;;;;;;14.60;7.57;;;;;;;8.60;62.90;99778.56;4107454;28;20054;-68
2023/04/15 06:55:51;;;;;;;14.55;7.57;;;;;;;8.66;62.55;99776.03;4130126;28;20050;-68
2023/04/15 06:57:54;;;;;;;15.00;8.27;;;;;;;8.74;62.81;99776.97;4118971;28;20556;-68
2023/04/15 06:59:57;;;;;;;13.43;7.80;;;;;;;8.94;61.79;99778.06;4114758;28;20488;-68
2023/04/15 07:02:00;;;;;;;17.23;9.25;;;;;;;9.05;61.62;99777.31;4114675;28;20045;-68
2023/04/15 07:04:03;;;;;;;11.05;6.80;;;;;;;9.05;61.67;99782.47;4111220;28;20049;-68
2023/04/15 07:06:06;;;;;;;12.90;8.95;;;;;;;9.25;60.82;99776.59;4124655;28;20042;-68
2023/04/15 07:08:09;;;;;;;13.23;9.10;;;;;;;9.46;60.20;99775.03;4111448;28;20097;-68
2023/04/15 07:10:13;;;;;;;17.42;8.77;;;;;;;9.49;60.03;99775.03;4115678;28;20070;-68
2023/04/15 07:12:18;;;;;;;24.75;11.63;;;;;;;9.71;58.74;99776.06;4115725;28;20030;-68
2023/04/15 07:14:21;;;;;;;20.63;10.68;;;;;;;9.57;59.28;99776.84;4116107;28;20050;-68
2023/04/15 07:16:23;;;;;;;24.45;13.75;;;;;;;9.50;59.21;99784.56;4111440;28;20057;-68
2023/04/15 07:18:28;;;;;;;20.27;12.70;;;;;;;9.47;59.87;99776.78;4104617;28;20039;-68
2023/04/15 07:20:31;;;;;;;18.92;11.85;;;;;;;9.37;60.10;99787.06;4117143;28;20476;-68
2023/04/15 07:22:34;;;;;;;17.80;11.35;;;;;;;9.46;60.34;99781.06;4112727;28;20037;-68
2023/04/15 07:24:37;;;;;;;19.15;10.23;;;;;;;9.47;60.25;99776.78;4115326;28;20404;-68
2023/04/15 07:26:40;;;;;;;16.00;8.82;;;;;;;9.41;60.48;99778.44;4115182;28;20039;-68
2023/04/15 07:28:45;;;;;;;15.63;8.82;;;;;;;9.51;60.09;99778.53;4115121;28;20050;-68
2023/04/15 07:30:48;;;;;;;16.83;9.27;;;;;;;9.71;59.96;99776.94;4111210;28;20125;-68
2023/04/15 07:32:51;;;;;;;20.25;10.05;;;;;;;9.75;59.43;99781.31;4125206;28;20042;-68
2023/04/15 07:34:54;;;;;;;16.58;9.93;;;;;;;9.79;59.57;99780.44;4116721;28;20038;-68
2023/04/15 07:36:57;;;;;;;15.88;9.73;;;;;;;9.77;59.88;99779.56;4115237;28;20089;-68
2023/04/15 07:39:02;;;;;;;18.42;10.32;;;;;;;9.84;59.92;99782.22;4103853;28;20125;-68
2023/04/15 07:41:05;;;;;;;17.08;9.82;;;;;;;9.91;59.63;99781.38;4113259;28;20519;-68
2023/04/15 07:43:08;;;;;;;17.77;8.88;;;;;;;9.93;59.89;99779.69;4127691;28;20409;-67
2023/04/15 07:45:13;;;;;;;18.83;9.82;;;;;;;10.01;60.05;99774.53;4113760;28;20227;-69
2023/04/15 07:47:19;;;;;;;15.65;8.85;;;;;;;10.08;59.56;99786.69;4112582;28;20046;-68
2023/04/15 07:49:23;;;;;;;13.95;8.60;;;;;;;10.06;59.46;99783.19;4113157;28;20039;-69
2023/04/15 07:51:26;;;;;;;16.58;9.30;;;;;;;10.00;59.27;99786.63;4120554;28;20038;-68
2023/04/15 07:53:29;;;;;;;36.45;9.43;;;;;;;9.99;59.23;99786.63;4116462;28;20038;-68
2023/04/15 07:55:32;;;;;;;17.90;8.88;;;;;;;9.87;59.99;99790.00;4120290;28;20050;-68
2023/04/15 07:57:35;;;;;;;20.00;9.65;;;;;;;9.85;59.85;99792.59;4097498;28;20074;-68
2023/04/15 07:59:37;;;;;;;15.48;8.82;;;;;;;9.96;58.72;99792.69;4111826;28;20053;-68
2023/04/15 08:01:42;;;;;;;13.40;8.65;;;;;;;9.87;59.47;99788.31;4113929;28;20039;-68
2023/04/15 08:03:45;;;;;;;14.55;8.77;;;;;;;9.93;59.02;99792.66;4113808;28;20061;-68
2023/04/15 08:05:50;;;;;;;20.17;7.95;;;;;;;9.90;59.78;99795.22;4113801;28;20038;-69
2023/04/15 08:07:55;;;;;;;14.15;7.07;;;;;;;9.94;59.41;99795.28;4109125;28;20302;-67
2023/04/15 08:09:58;;;;;;;16.40;8.13;;;;;;;10.03;59.17;99791.88;4106039;28;20050;-67
2023/04/15 08:12:01;;;;;;;12.98;7.53;;;;;;;10.00;59.58;99791.81;4107927;28;20035;-67
2023/04/15 08:14:04;;;;;;;16.48;8.23;;;;;;;10.02;59.66;99790.13;4119100;28;20121;-69
2023/04/15 08:16:27;;;;;;;13.25;8.30;;;;;;;10.24;58.72;99790.22;4129339;28;20042;-66
2023/04/15 08:18:31;;;;;;;12.13;7.70;;;;;;;10.33;57.86;99792.84;4104898;28;20066;-67
2023/04/15 08:20:34;;;;;;;13.85;7.82;;;;;;;10.42;57.50;99797.25;4128221;28;20042;-67
2023/04/15 08:22:37;;;;;;;13.13;7.93;;;;;;;10.47;57.87;99791.22;4117058;28;20318;-67
2023/04/15 08:24:40;;;;;;;15.25;8.77;;;;;;;10.66;58.03;99796.50;4114046;28;20045;-67
2023/04/15 08:26:43;;;;;;;14.63;7.55;;;;;;;10.88;56.80;99806.94;4112472;28;20401;-67
2023/04/15 08:28:47;;;;;;;12.82;6.43;;;;;;;10.94;57.39;99796.56;4111600;28;20048;-67
2023/04/15 08:30:50;;;;;;;12.38;7.18;;;;;;;11.05;57.08;99800.03;4114095;28;20089;-67
2023/04/15 08:32:53;;;;;;;12.60;7.22;;;;;;;11.20;56.02;99803.53;4113391;28;20049;-67
2023/04/15 08:34:57;;;;;;;14.13;7.38;;;;;;;11.27;55.24;99802.66;4113021;28;20043;-67
2023/04/15 08:37:00;;;;;;;14.80;6.78;;;;;;;11.26;54.29;99807.00;4133181;28;20050;-67
2023/04/15 08:39:03;;;;;;;13.25;6.72;;;;;;;11.12;56.31;99806.13;4113846;28;20057;-67
2023/04/15 08:41:12;;;;;;;15.10;7.22;;;;;;;11.18;56.37;99808.72;4108822;28;20141;-67
2023/04/15 08:43:21;;;;;;;13.43;6.70;;;;;;;11.35;54.41;99811.34;4113609;28;20042;-66
2023/04/15 08:45:25;;;;;;;12.77;7.63;;;;;;;11.34;55.44;99804.41;4113459;28;20035;-67
2023/04/15 08:47:30;;;;;;;13.93;7.93;;;;;;;11.55;54.40;99805.25;4114468;28;20050;-69
2023/04/15 08:49:39;;;;;;;15.38;7.13;;;;;;;11.69;53.06;99806.13;4113180;28;20062;-69
2023/04/15 08:51:44;;;;;;;13.45;7.00;;;;;;;11.53;53.94;99803.56;4128267;28;20435;-70
2023/04/15 08:53:50;;;;;;;16.38;7.03;;;;;;;11.70;52.61;99807.88;4096046;28;20556;-62
2023/04/15 08:55:57;;;;;;;17.65;7.72;;;;;;;11.66;53.71;99809.59;4111974;28;20038;-62
2023/04/15 08:58:01;;;;;;;9.73;5.40;;;;;;;11.58;54.43;99813.06;4112690;28;20050;-63
2023/04/15 09:00:06;;;;;;;12.07;5.75;;;;;;;11.87;53.41;99808.72;4112116;28;20416;-64
2023/04/15 09:02:09;;;;;;;14.07;6.47;;;;;;;12.05;53.16;99810.44;4110995;28;20043;-63
2023/04/15 09:04:12;;;;;;;12.95;6.63;;;;;;;12.17;52.35;99809.53;4114871;28;20062;-64
2023/04/15 09:06:16;;;;;;;8.45;5.72;;;;;;;12.18;52.34;99808.69;4118903;28;20050;-63
2023/04/15 09:08:21;;;;;;;8.75;5.10;;;;;;;12.11;52.40;99811.31;4117459;28;20038;-63
2023/04/15 09:10:24;;;;;;;16.40;6.25;;;;;;;12.21;51.94;99811.28;4105165;28;20043;-63
2023/04/15 09:12:28;;;;;;;11.20;5.80;;;;;;;12.35;52.71;99815.56;4125853;28;20046;-66
2023/04/15 09:14:31;;;;;;;8.18;5.18;;;;;;;12.44;52.77;99814.66;4110407;28;20177;-63
2023/04/15 09:16:58;;;;;;;11.52;5.25;;;;;;;12.72;52.15;99818.03;4114054;28;20035;-64
2023/04/15 09:19:21;;;;;;;10.93;5.90;;;;;;;12.89;51.32;99821.44;4113573;28;20055;-64
2023/04/15 09:21:24;;;;;;;11.70;5.20;;;;;;;13.07;50.26;99811.75;4113965;28;20397;-63
2023/04/15 09:23:28;;;;;;;8.18;4.85;;;;;;;13.24;49.26;99820.34;4114669;28;20452;-69
2023/04/15 09:25:31;;;;;;;10.82;4.72;;;;;;;13.28;49.06;99811.56;4112377;28;20428;-65
2023/04/15 09:27:37;;;;;;;8.35;4.80;;;;;;;13.10;49.91;99817.81;4112694;28;20046;-64
2023/04/15 09:29:41;;;;;;;12.07;4.63;;;;;;;13.13;49.82;99810.81;4113394;28;20134;-65
2023/04/15 09:31:47;;;;;;;14.07;4.95;;;;;;;13.31;48.74;99818.53;4110860;28;20051;-63
2023/04/15 09:33:56;;;;;;;6.22;4.10;;;;;;;13.41;49.13;99822.84;4112625;28;20042;-63
2023/04/15 09:36:02;;;;;;;9.88;4.05;;;;;;;13.33;49.33;99823.72;4111887;28;20039;-65
2023/04/15 09:38:06;;;;;;;10.88;4.57;;;;;;;13.41;48.76;99821.97;4112808;28;20042;-65
2023/04/15 09:40:12;;;;;;;8.63;3.90;;;;;;;13.40;49.80;99820.25;4113260;28;20138;-62
2023/04/15 09:42:16;;;;;;;10.38;4.78;;;;;;;13.59;48.48;99827.06;4111587;28;20053;-65